Raisinville Township, Michigan
Current Conditions -  °F | °C
As of 8:52 PM on Saturday 25 Oct 2014 (Local Time) from KTTF Reporting Station
Clear Clear  
Wind Chill: 55°   Ceiling: Unl
Heat Index: 55°   Visibility: 10mi
Dew Point: 34°   Wind: 6mph
Humidity: 44%   Direction: 280°W
Pressure: 29.8"   Gusts: NA
Location:  41.9088°N, 83.4727°W
Report Text: KTTF 260052Z AUTO 28005KT 10SM CLR 13/01 A2980 RMK AO2
Loading
Personal Weather Stations






























Interactive Weather Map
Tropical Storm Tracking
New forecast layout! Learn more

10-Day Weather Forecast

Advertisements
Track Severe Weather on mobile